sensor_id;sensor_type;location;lat;lon;timestamp;temperature;humidity
35960;DHT22;22043;50.970;7.192;2022-08-02T00:01:40;18.10;99.90
35960;DHT22;22043;50.970;7.192;2022-08-02T00:04:06;18.10;99.90
35960;DHT22;22043;50.970;7.192;2022-08-02T00:06:32;18.10;99.90
35960;DHT22;22043;50.970;7.192;2022-08-02T00:08:57;18.00;99.90
35960;DHT22;22043;50.970;7.192;2022-08-02T00:11:23;18.00;99.90
35960;DHT22;22043;50.970;7.192;2022-08-02T00:13:49;18.00;99.90
35960;DHT22;22043;50.970;7.192;2022-08-02T00:16:15;17.90;99.90
35960;DHT22;22043;50.970;7.192;2022-08-02T00:18:40;17.90;99.90
35960;DHT22;22043;50.970;7.192;2022-08-02T00:21:06;17.90;99.90
35960;DHT22;22043;50.970;7.192;2022-08-02T00:23:32;17.90;99.90
35960;DHT22;22043;50.970;7.192;2022-08-02T00:25:57;17.90;99.90
35960;DHT22;22043;50.970;7.192;2022-08-02T00:28:24;17.80;99.90
35960;DHT22;22043;50.970;7.192;2022-08-02T00:30:51;17.80;99.90
35960;DHT22;22043;50.970;7.192;2022-08-02T00:33:17;17.70;99.90
35960;DHT22;22043;50.970;7.192;2022-08-02T00:35:43;17.70;99.90
35960;DHT22;22043;50.970;7.192;2022-08-02T00:38:12;17.60;99.90
35960;DHT22;22043;50.970;7.192;2022-08-02T00:40:37;17.60;99.90
35960;DHT22;22043;50.970;7.192;2022-08-02T00:43:06;17.60;99.90
35960;DHT22;22043;50.970;7.192;2022-08-02T00:45:37;17.60;99.90
35960;DHT22;22043;50.970;7.192;2022-08-02T00:48:04;17.60;99.90
35960;DHT22;22043;50.970;7.192;2022-08-02T00:50:31;17.60;99.90
35960;DHT22;22043;50.970;7.192;2022-08-02T00:52:57;17.60;99.90
35960;DHT22;22043;50.970;7.192;2022-08-02T00:55:24;17.60;99.90
35960;DHT22;22043;50.970;7.192;2022-08-02T00:57:50;17.60;99.90
35960;DHT22;22043;50.970;7.192;2022-08-02T01:00:22;17.50;99.90
35960;DHT22;22043;50.970;7.192;2022-08-02T01:02:49;17.50;99.90
35960;DHT22;22043;50.970;7.192;2022-08-02T01:05:15;17.50;99.90
35960;DHT22;22043;50.970;7.192;2022-08-02T01:07:41;17.50;99.90
35960;DHT22;22043;50.970;7.192;2022-08-02T01:10:07;17.50;99.90
35960;DHT22;22043;50.970;7.192;2022-08-02T01:12:33;17.40;99.90
35960;DHT22;22043;50.970;7.192;2022-08-02T01:15:05;17.50;99.90
35960;DHT22;22043;50.970;7.192;2022-08-02T01:25:38;17.50;99.90
35960;DHT22;22043;50.970;7.192;2022-08-02T01:31:17;17.50;99.90
35960;DHT22;22043;50.970;7.192;2022-08-02T01:36:37;17.40;99.90
35960;DHT22;22043;50.970;7.192;2022-08-02T01:39:03;17.40;99.90
35960;DHT22;22043;50.970;7.192;2022-08-02T01:41:31;17.30;99.90
35960;DHT22;22043;50.970;7.192;2022-08-02T01:43:59;17.40;99.90
35960;DHT22;22043;50.970;7.192;2022-08-02T01:46:26;17.40;99.90
35960;DHT22;22043;50.970;7.192;2022-08-02T01:48:55;17.40;99.90
35960;DHT22;22043;50.970;7.192;2022-08-02T01:51:21;17.40;99.90
35960;DHT22;22043;50.970;7.192;2022-08-02T01:54:09;17.40;99.90
35960;DHT22;22043;50.970;7.192;2022-08-02T01:56:36;17.40;99.90
35960;DHT22;22043;50.970;7.192;2022-08-02T01:59:04;17.40;99.90
35960;DHT22;22043;50.970;7.192;2022-08-02T02:01:31;17.30;99.90
35960;DHT22;22043;50.970;7.192;2022-08-02T02:04:01;17.30;99.90
35960;DHT22;22043;50.970;7.192;2022-08-02T02:06:28;17.30;99.90
35960;DHT22;22043;50.970;7.192;2022-08-02T02:08:55;17.30;99.90
35960;DHT22;22043;50.970;7.192;2022-08-02T02:11:22;17.20;99.90
35960;DHT22;22043;50.970;7.192;2022-08-02T02:13:49;17.10;99.90
35960;DHT22;22043;50.970;7.192;2022-08-02T02:16:15;17.10;99.90
35960;DHT22;22043;50.970;7.192;2022-08-02T02:18:42;17.10;99.90
35960;DHT22;22043;50.970;7.192;2022-08-02T02:21:12;17.00;99.90
35960;DHT22;22043;50.970;7.192;2022-08-02T02:23:37;17.00;99.90
35960;DHT22;22043;50.970;7.192;2022-08-02T02:26:04;17.00;99.90
35960;DHT22;22043;50.970;7.192;2022-08-02T02:28:31;17.00;99.90
35960;DHT22;22043;50.970;7.192;2022-08-02T02:31:06;16.90;99.90
35960;DHT22;22043;50.970;7.192;2022-08-02T02:33:36;16.90;99.90
35960;DHT22;22043;50.970;7.192;2022-08-02T02:36:04;16.80;99.90
35960;DHT22;22043;50.970;7.192;2022-08-02T02:38:31;16.80;99.90
35960;DHT22;22043;50.970;7.192;2022-08-02T02:41:00;16.80;99.90
35960;DHT22;22043;50.970;7.192;2022-08-02T02:43:27;16.80;99.90
35960;DHT22;22043;50.970;7.192;2022-08-02T02:45:55;16.80;99.90
35960;DHT22;22043;50.970;7.192;2022-08-02T02:48:21;16.90;99.90
35960;DHT22;22043;50.970;7.192;2022-08-02T02:50:47;16.90;99.90
35960;DHT22;22043;50.970;7.192;2022-08-02T02:53:15;16.90;99.90
35960;DHT22;22043;50.970;7.192;2022-08-02T02:55:43;16.90;99.90
35960;DHT22;22043;50.970;7.192;2022-08-02T02:58:09;17.00;99.90
35960;DHT22;22043;50.970;7.192;2022-08-02T03:00:35;17.00;99.90
35960;DHT22;22043;50.970;7.192;2022-08-02T03:03:21;17.00;99.90
35960;DHT22;22043;50.970;7.192;2022-08-02T03:05:47;17.00;99.90
35960;DHT22;22043;50.970;7.192;2022-08-02T03:08:13;17.00;99.90
35960;DHT22;22043;50.970;7.192;2022-08-02T03:10:39;17.00;99.90
35960;DHT22;22043;50.970;7.192;2022-08-02T03:13:04;16.90;99.90
35960;DHT22;22043;50.970;7.192;2022-08-02T03:15:31;16.90;99.90
35960;DHT22;22043;50.970;7.192;2022-08-02T03:17:57;16.90;99.90
35960;DHT22;22043;50.970;7.192;2022-08-02T03:20:23;16.90;99.90
35960;DHT22;22043;50.970;7.192;2022-08-02T03:22:48;16.90;99.90
35960;DHT22;22043;50.970;7.192;2022-08-02T03:25:15;16.90;99.90
35960;DHT22;22043;50.970;7.192;2022-08-02T03:27:41;16.90;99.90
35960;DHT22;22043;50.970;7.192;2022-08-02T03:30:09;16.90;99.90
35960;DHT22;22043;50.970;7.192;2022-08-02T03:32:37;16.90;99.90
35960;DHT22;22043;50.970;7.192;2022-08-02T03:35:05;16.80;99.90
35960;DHT22;22043;50.970;7.192;2022-08-02T03:37:33;16.80;99.90
35960;DHT22;22043;50.970;7.192;2022-08-02T03:40:00;16.80;99.90
35960;DHT22;22043;50.970;7.192;2022-08-02T03:42:27;16.80;99.90
35960;DHT22;22043;50.970;7.192;2022-08-02T03:44:54;16.80;99.90
35960;DHT22;22043;50.970;7.192;2022-08-02T03:47:20;16.70;99.90
35960;DHT22;22043;50.970;7.192;2022-08-02T03:49:47;16.70;99.90
35960;DHT22;22043;50.970;7.192;2022-08-02T03:52:13;16.70;99.90
35960;DHT22;22043;50.970;7.192;2022-08-02T03:54:39;16.70;99.90
35960;DHT22;22043;50.970;7.192;2022-08-02T03:57:06;16.70;99.90
35960;DHT22;22043;50.970;7.192;2022-08-02T03:59:44;16.60;99.90
35960;DHT22;22043;50.970;7.192;2022-08-02T04:02:12;16.70;99.90
35960;DHT22;22043;50.970;7.192;2022-08-02T04:04:38;16.60;99.90
35960;DHT22;22043;50.970;7.192;2022-08-02T04:07:04;16.60;99.90
35960;DHT22;22043;50.970;7.192;2022-08-02T04:09:30;16.60;99.90
35960;DHT22;22043;50.970;7.192;2022-08-02T04:11:56;16.60;99.90
35960;DHT22;22043;50.970;7.192;2022-08-02T04:14:22;16.60;99.90
35960;DHT22;22043;50.970;7.192;2022-08-02T04:16:53;16.60;99.90
35960;DHT22;22043;50.970;7.192;2022-08-02T04:19:42;16.50;99.90
35960;DHT22;22043;50.970;7.192;2022-08-02T04:22:15;16.50;99.90
35960;DHT22;22043;50.970;7.192;2022-08-02T04:24:46;16.50;99.90
35960;DHT22;22043;50.970;7.192;2022-08-02T04:27:14;16.50;99.90
35960;DHT22;22043;50.970;7.192;2022-08-02T04:29:41;16.50;99.90
35960;DHT22;22043;50.970;7.192;2022-08-02T04:32:07;16.50;99.90
35960;DHT22;22043;50.970;7.192;2022-08-02T04:34:33;16.50;99.90
35960;DHT22;22043;50.970;7.192;2022-08-02T04:36:59;16.50;99.90
35960;DHT22;22043;50.970;7.192;2022-08-02T04:39:26;16.50;99.90
35960;DHT22;22043;50.970;7.192;2022-08-02T04:41:52;16.50;99.90
35960;DHT22;22043;50.970;7.192;2022-08-02T04:44:18;16.60;99.90
35960;DHT22;22043;50.970;7.192;2022-08-02T04:46:44;16.60;99.90
35960;DHT22;22043;50.970;7.192;2022-08-02T04:49:11;16.60;99.90
35960;DHT22;22043;50.970;7.192;2022-08-02T04:51:38;16.60;99.90
35960;DHT22;22043;50.970;7.192;2022-08-02T04:54:05;16.60;99.90
35960;DHT22;22043;50.970;7.192;2022-08-02T04:56:31;16.60;99.90
35960;DHT22;22043;50.970;7.192;2022-08-02T04:58:56;16.60;99.90
35960;DHT22;22043;50.970;7.192;2022-08-02T05:01:22;16.60;99.90
35960;DHT22;22043;50.970;7.192;2022-08-02T05:03:48;16.60;99.90
35960;DHT22;22043;50.970;7.192;2022-08-02T05:06:14;16.60;99.90
35960;DHT22;22043;50.970;7.192;2022-08-02T05:08:39;16.60;99.90
35960;DHT22;22043;50.970;7.192;2022-08-02T05:11:05;16.60;99.90
35960;DHT22;22043;50.970;7.192;2022-08-02T05:13:31;16.60;99.90
35960;DHT22;22043;50.970;7.192;2022-08-02T05:15:56;16.60;99.90
35960;DHT22;22043;50.970;7.192;2022-08-02T05:18:25;16.70;99.90
35960;DHT22;22043;50.970;7.192;2022-08-02T05:20:53;16.70;99.90
35960;DHT22;22043;50.970;7.192;2022-08-02T05:23:18;16.70;99.90
35960;DHT22;22043;50.970;7.192;2022-08-02T05:25:44;16.80;99.90
35960;DHT22;22043;50.970;7.192;2022-08-02T05:28:10;16.80;99.90
35960;DHT22;22043;50.970;7.192;2022-08-02T05:30:35;16.80;99.90
35960;DHT22;22043;50.970;7.192;2022-08-02T05:33:01;16.90;99.90
35960;DHT22;22043;50.970;7.192;2022-08-02T05:35:26;16.90;99.90
35960;DHT22;22043;50.970;7.192;2022-08-02T05:37:52;16.90;99.90
35960;DHT22;22043;50.970;7.192;2022-08-02T05:40:18;17.00;99.90
35960;DHT22;22043;50.970;7.192;2022-08-02T05:42:44;17.00;99.90
35960;DHT22;22043;50.970;7.192;2022-08-02T05:45:10;17.10;99.90
35960;DHT22;22043;50.970;7.192;2022-08-02T05:47:36;17.20;99.90
35960;DHT22;22043;50.970;7.192;2022-08-02T05:50:05;17.20;99.90
35960;DHT22;22043;50.970;7.192;2022-08-02T05:52:58;17.20;99.90
35960;DHT22;22043;50.970;7.192;2022-08-02T05:55:33;17.20;99.90
35960;DHT22;22043;50.970;7.192;2022-08-02T05:58:09;17.30;99.90
35960;DHT22;22043;50.970;7.192;2022-08-02T06:00:39;17.30;99.90
35960;DHT22;22043;50.970;7.192;2022-08-02T06:03:16;17.30;99.90
35960;DHT22;22043;50.970;7.192;2022-08-02T06:05:58;17.40;99.90
35960;DHT22;22043;50.970;7.192;2022-08-02T06:08:38;17.40;99.90
35960;DHT22;22043;50.970;7.192;2022-08-02T06:11:06;17.40;99.90
35960;DHT22;22043;50.970;7.192;2022-08-02T06:13:36;17.40;99.90
35960;DHT22;22043;50.970;7.192;2022-08-02T06:16:03;17.50;99.90
35960;DHT22;22043;50.970;7.192;2022-08-02T06:18:30;17.50;99.90
35960;DHT22;22043;50.970;7.192;2022-08-02T06:21:00;17.60;99.90
35960;DHT22;22043;50.970;7.192;2022-08-02T06:23:27;17.60;99.90
35960;DHT22;22043;50.970;7.192;2022-08-02T06:25:56;17.70;99.90
35960;DHT22;22043;50.970;7.192;2022-08-02T06:28:22;17.70;99.90
35960;DHT22;22043;50.970;7.192;2022-08-02T06:30:48;17.70;99.90
35960;DHT22;22043;50.970;7.192;2022-08-02T06:33:14;17.80;99.90
35960;DHT22;22043;50.970;7.192;2022-08-02T06:35:51;17.80;99.90
35960;DHT22;22043;50.970;7.192;2022-08-02T06:38:22;17.90;99.90
35960;DHT22;22043;50.970;7.192;2022-08-02T06:41:00;17.90;99.90
35960;DHT22;22043;50.970;7.192;2022-08-02T06:46:13;18.00;99.90
35960;DHT22;22043;50.970;7.192;2022-08-02T06:48:39;18.00;99.90
35960;DHT22;22043;50.970;7.192;2022-08-02T06:51:05;18.10;99.90
35960;DHT22;22043;50.970;7.192;2022-08-02T06:53:31;18.10;99.90
35960;DHT22;22043;50.970;7.192;2022-08-02T06:55:57;18.20;99.90
35960;DHT22;22043;50.970;7.192;2022-08-02T06:58:23;18.20;99.90
35960;DHT22;22043;50.970;7.192;2022-08-02T07:00:49;18.30;99.90
35960;DHT22;22043;50.970;7.192;2022-08-02T07:03:15;18.30;99.90
35960;DHT22;22043;50.970;7.192;2022-08-02T07:05:42;18.40;99.90
35960;DHT22;22043;50.970;7.192;2022-08-02T07:08:12;18.40;99.90
35960;DHT22;22043;50.970;7.192;2022-08-02T07:10:37;18.50;99.90
35960;DHT22;22043;50.970;7.192;2022-08-02T07:13:03;18.50;99.90
35960;DHT22;22043;50.970;7.192;2022-08-02T07:15:28;18.50;99.90
35960;DHT22;22043;50.970;7.192;2022-08-02T07:17:54;18.60;99.90
35960;DHT22;22043;50.970;7.192;2022-08-02T07:20:20;18.70;99.90
35960;DHT22;22043;50.970;7.192;2022-08-02T07:22:45;18.70;99.90
35960;DHT22;22043;50.970;7.192;2022-08-02T07:25:11;18.80;99.90
35960;DHT22;22043;50.970;7.192;2022-08-02T07:27:37;18.80;99.90
35960;DHT22;22043;50.970;7.192;2022-08-02T07:30:03;18.80;99.90
35960;DHT22;22043;50.970;7.192;2022-08-02T07:32:31;18.90;99.90
35960;DHT22;22043;50.970;7.192;2022-08-02T07:34:57;18.90;99.90
35960;DHT22;22043;50.970;7.192;2022-08-02T07:37:27;19.00;99.90
35960;DHT22;22043;50.970;7.192;2022-08-02T07:39:53;19.00;99.90
35960;DHT22;22043;50.970;7.192;2022-08-02T07:42:18;19.10;99.90
35960;DHT22;22043;50.970;7.192;2022-08-02T07:44:44;19.10;99.90
35960;DHT22;22043;50.970;7.192;2022-08-02T07:47:10;19.10;99.90
35960;DHT22;22043;50.970;7.192;2022-08-02T07:49:35;19.20;99.90
35960;DHT22;22043;50.970;7.192;2022-08-02T07:52:01;19.20;99.90
35960;DHT22;22043;50.970;7.192;2022-08-02T07:54:27;19.20;99.90
35960;DHT22;22043;50.970;7.192;2022-08-02T07:56:53;19.20;99.90
35960;DHT22;22043;50.970;7.192;2022-08-02T07:59:20;19.30;99.90
35960;DHT22;22043;50.970;7.192;2022-08-02T08:01:46;19.30;99.90
35960;DHT22;22043;50.970;7.192;2022-08-02T08:04:14;19.30;99.90
35960;DHT22;22043;50.970;7.192;2022-08-02T08:06:40;19.40;99.90
35960;DHT22;22043;50.970;7.192;2022-08-02T08:09:05;19.50;99.90
35960;DHT22;22043;50.970;7.192;2022-08-02T08:11:31;19.50;99.90
35960;DHT22;22043;50.970;7.192;2022-08-02T08:13:57;19.50;99.90
35960;DHT22;22043;50.970;7.192;2022-08-02T08:16:22;19.60;99.90
35960;DHT22;22043;50.970;7.192;2022-08-02T08:18:50;19.60;99.90
35960;DHT22;22043;50.970;7.192;2022-08-02T08:21:16;19.70;99.90
35960;DHT22;22043;50.970;7.192;2022-08-02T08:23:42;19.70;99.90
35960;DHT22;22043;50.970;7.192;2022-08-02T08:26:07;19.70;99.90
35960;DHT22;22043;50.970;7.192;2022-08-02T08:28:33;19.80;99.90
35960;DHT22;22043;50.970;7.192;2022-08-02T08:31:00;19.90;99.90
35960;DHT22;22043;50.970;7.192;2022-08-02T08:33:26;19.90;99.90
35960;DHT22;22043;50.970;7.192;2022-08-02T08:35:52;19.90;99.90
35960;DHT22;22043;50.970;7.192;2022-08-02T08:38:19;19.90;99.90
35960;DHT22;22043;50.970;7.192;2022-08-02T08:40:48;20.00;99.90
35960;DHT22;22043;50.970;7.192;2022-08-02T08:43:13;20.00;99.90
35960;DHT22;22043;50.970;7.192;2022-08-02T08:45:43;20.10;99.90
35960;DHT22;22043;50.970;7.192;2022-08-02T08:48:10;20.30;99.90
35960;DHT22;22043;50.970;7.192;2022-08-02T08:51:00;20.30;99.90
35960;DHT22;22043;50.970;7.192;2022-08-02T08:53:30;20.30;99.90
35960;DHT22;22043;50.970;7.192;2022-08-02T08:55:58;20.40;99.90
35960;DHT22;22043;50.970;7.192;2022-08-02T08:58:24;20.40;99.90
35960;DHT22;22043;50.970;7.192;2022-08-02T09:00:50;20.50;99.90
35960;DHT22;22043;50.970;7.192;2022-08-02T09:03:16;20.50;99.90
35960;DHT22;22043;50.970;7.192;2022-08-02T09:05:42;20.50;99.90
35960;DHT22;22043;50.970;7.192;2022-08-02T09:08:11;20.60;99.90
35960;DHT22;22043;50.970;7.192;2022-08-02T09:10:40;20.60;99.90
35960;DHT22;22043;50.970;7.192;2022-08-02T09:15:34;20.80;99.90
35960;DHT22;22043;50.970;7.192;2022-08-02T09:18:02;20.80;99.90
35960;DHT22;22043;50.970;7.192;2022-08-02T09:20:28;20.70;99.90
35960;DHT22;22043;50.970;7.192;2022-08-02T09:23:07;20.70;99.90
35960;DHT22;22043;50.970;7.192;2022-08-02T09:25:34;20.80;99.90
35960;DHT22;22043;50.970;7.192;2022-08-02T09:28:03;20.80;99.90
35960;DHT22;22043;50.970;7.192;2022-08-02T09:30:29;20.80;99.90
35960;DHT22;22043;50.970;7.192;2022-08-02T09:32:54;20.90;99.90
35960;DHT22;22043;50.970;7.192;2022-08-02T09:35:31;20.90;99.90
35960;DHT22;22043;50.970;7.192;2022-08-02T09:38:15;20.90;99.90
35960;DHT22;22043;50.970;7.192;2022-08-02T09:40:41;21.00;99.90
35960;DHT22;22043;50.970;7.192;2022-08-02T09:43:07;21.00;99.90
35960;DHT22;22043;50.970;7.192;2022-08-02T09:45:34;20.90;99.90
35960;DHT22;22043;50.970;7.192;2022-08-02T09:48:10;20.90;99.90
35960;DHT22;22043;50.970;7.192;2022-08-02T09:50:40;20.90;99.90
35960;DHT22;22043;50.970;7.192;2022-08-02T09:53:12;21.00;99.90
35960;DHT22;22043;50.970;7.192;2022-08-02T09:55:39;21.00;99.90
35960;DHT22;22043;50.970;7.192;2022-08-02T09:58:19;21.00;99.90
35960;DHT22;22043;50.970;7.192;2022-08-02T10:00:56;21.10;99.90
35960;DHT22;22043;50.970;7.192;2022-08-02T10:03:23;21.20;99.90
35960;DHT22;22043;50.970;7.192;2022-08-02T10:05:54;21.20;99.90
35960;DHT22;22043;50.970;7.192;2022-08-02T10:08:21;21.20;99.90
35960;DHT22;22043;50.970;7.192;2022-08-02T10:10:46;21.30;99.90
35960;DHT22;22043;50.970;7.192;2022-08-02T10:13:14;21.30;99.90
35960;DHT22;22043;50.970;7.192;2022-08-02T10:15:40;21.30;99.90
35960;DHT22;22043;50.970;7.192;2022-08-02T10:18:06;21.30;99.90
35960;DHT22;22043;50.970;7.192;2022-08-02T10:20:40;21.30;99.90
35960;DHT22;22043;50.970;7.192;2022-08-02T10:23:09;21.40;99.90
35960;DHT22;22043;50.970;7.192;2022-08-02T10:25:38;21.40;99.90
35960;DHT22;22043;50.970;7.192;2022-08-02T10:28:05;21.40;99.90
35960;DHT22;22043;50.970;7.192;2022-08-02T10:30:37;21.40;99.90
35960;DHT22;22043;50.970;7.192;2022-08-02T10:33:05;21.40;99.90
35960;DHT22;22043;50.970;7.192;2022-08-02T10:35:34;21.50;99.90
35960;DHT22;22043;50.970;7.192;2022-08-02T10:38:05;21.60;99.90
35960;DHT22;22043;50.970;7.192;2022-08-02T10:41:02;21.70;99.90
35960;DHT22;22043;50.970;7.192;2022-08-02T10:49:17;21.90;99.90
35960;DHT22;22043;50.970;7.192;2022-08-02T10:54:36;22.00;99.90
35960;DHT22;22043;50.970;7.192;2022-08-02T10:57:03;22.00;99.90
35960;DHT22;22043;50.970;7.192;2022-08-02T10:59:38;22.10;99.90
35960;DHT22;22043;50.970;7.192;2022-08-02T11:02:04;22.10;99.90
35960;DHT22;22043;50.970;7.192;2022-08-02T11:04:59;22.00;99.90
35960;DHT22;22043;50.970;7.192;2022-08-02T11:07:40;22.00;99.90
35960;DHT22;22043;50.970;7.192;2022-08-02T11:10:28;21.80;99.90
35960;DHT22;22043;50.970;7.192;2022-08-02T11:13:14;21.80;99.90
35960;DHT22;22043;50.970;7.192;2022-08-02T11:15:58;21.80;99.90
35960;DHT22;22043;50.970;7.192;2022-08-02T11:19:07;21.70;99.90
35960;DHT22;22043;50.970;7.192;2022-08-02T11:21:33;21.70;99.90
35960;DHT22;22043;50.970;7.192;2022-08-02T11:24:25;21.70;99.90
35960;DHT22;22043;50.970;7.192;2022-08-02T11:26:54;21.70;99.90
35960;DHT22;22043;50.970;7.192;2022-08-02T11:29:20;21.70;99.90
35960;DHT22;22043;50.970;7.192;2022-08-02T11:31:46;21.80;99.90
35960;DHT22;22043;50.970;7.192;2022-08-02T11:34:12;21.80;99.90
35960;DHT22;22043;50.970;7.192;2022-08-02T11:36:43;21.80;99.90
35960;DHT22;22043;50.970;7.192;2022-08-02T11:39:15;21.80;99.90
35960;DHT22;22043;50.970;7.192;2022-08-02T11:41:42;21.80;99.90
35960;DHT22;22043;50.970;7.192;2022-08-02T11:44:08;21.90;99.90
35960;DHT22;22043;50.970;7.192;2022-08-02T11:46:33;22.00;99.90
35960;DHT22;22043;50.970;7.192;2022-08-02T11:49:17;22.00;99.90
35960;DHT22;22043;50.970;7.192;2022-08-02T11:51:53;22.00;99.90
35960;DHT22;22043;50.970;7.192;2022-08-02T11:54:23;22.10;99.90
35960;DHT22;22043;50.970;7.192;2022-08-02T11:56:49;22.10;99.90
35960;DHT22;22043;50.970;7.192;2022-08-02T11:59:14;22.10;99.90
35960;DHT22;22043;50.970;7.192;2022-08-02T12:01:40;22.20;99.90
35960;DHT22;22043;50.970;7.192;2022-08-02T12:04:07;22.30;99.90
35960;DHT22;22043;50.970;7.192;2022-08-02T12:06:33;22.50;99.90
35960;DHT22;22043;50.970;7.192;2022-08-02T12:09:06;22.50;99.90
35960;DHT22;22043;50.970;7.192;2022-08-02T12:11:32;22.50;99.90
35960;DHT22;22043;50.970;7.192;2022-08-02T12:13:59;22.60;99.90
35960;DHT22;22043;50.970;7.192;2022-08-02T12:16:35;22.50;99.90
35960;DHT22;22043;50.970;7.192;2022-08-02T12:19:20;22.60;99.90
35960;DHT22;22043;50.970;7.192;2022-08-02T12:22:13;22.70;99.90
35960;DHT22;22043;50.970;7.192;2022-08-02T12:24:41;22.80;99.90
35960;DHT22;22043;50.970;7.192;2022-08-02T12:27:08;22.90;99.90
35960;DHT22;22043;50.970;7.192;2022-08-02T12:29:38;23.00;99.90
35960;DHT22;22043;50.970;7.192;2022-08-02T12:32:05;22.90;99.90
35960;DHT22;22043;50.970;7.192;2022-08-02T12:34:32;22.90;99.90
35960;DHT22;22043;50.970;7.192;2022-08-02T12:37:06;22.90;99.90
35960;DHT22;22043;50.970;7.192;2022-08-02T12:39:44;22.90;99.90
35960;DHT22;22043;50.970;7.192;2022-08-02T12:42:11;22.80;99.90
35960;DHT22;22043;50.970;7.192;2022-08-02T12:44:48;22.80;99.90
35960;DHT22;22043;50.970;7.192;2022-08-02T12:47:14;22.80;99.90
35960;DHT22;22043;50.970;7.192;2022-08-02T12:49:39;22.90;99.90
35960;DHT22;22043;50.970;7.192;2022-08-02T12:52:19;23.00;99.90
35960;DHT22;22043;50.970;7.192;2022-08-02T12:54:45;23.10;99.90
35960;DHT22;22043;50.970;7.192;2022-08-02T12:57:15;23.10;99.90
35960;DHT22;22043;50.970;7.192;2022-08-02T12:59:42;23.20;99.90
35960;DHT22;22043;50.970;7.192;2022-08-02T13:02:11;23.20;99.90
35960;DHT22;22043;50.970;7.192;2022-08-02T13:04:38;23.20;99.90
35960;DHT22;22043;50.970;7.192;2022-08-02T13:07:04;23.10;99.90
35960;DHT22;22043;50.970;7.192;2022-08-02T13:09:38;23.10;99.90
35960;DHT22;22043;50.970;7.192;2022-08-02T13:12:06;23.10;99.90
35960;DHT22;22043;50.970;7.192;2022-08-02T13:14:32;23.10;99.90
35960;DHT22;22043;50.970;7.192;2022-08-02T13:16:58;23.00;99.90
35960;DHT22;22043;50.970;7.192;2022-08-02T13:19:24;23.00;99.90
35960;DHT22;22043;50.970;7.192;2022-08-02T13:21:51;23.00;99.90
35960;DHT22;22043;50.970;7.192;2022-08-02T13:24:18;23.00;99.90
35960;DHT22;22043;50.970;7.192;2022-08-02T13:26:44;23.10;99.90
35960;DHT22;22043;50.970;7.192;2022-08-02T13:29:11;23.20;99.90
35960;DHT22;22043;50.970;7.192;2022-08-02T13:31:38;23.30;99.90
35960;DHT22;22043;50.970;7.192;2022-08-02T13:34:05;23.30;99.90
35960;DHT22;22043;50.970;7.192;2022-08-02T13:36:32;23.20;99.90
35960;DHT22;22043;50.970;7.192;2022-08-02T13:38:59;23.00;99.90
35960;DHT22;22043;50.970;7.192;2022-08-02T13:41:24;23.00;99.90
35960;DHT22;22043;50.970;7.192;2022-08-02T13:43:50;23.00;99.90
35960;DHT22;22043;50.970;7.192;2022-08-02T13:46:16;22.90;99.90
35960;DHT22;22043;50.970;7.192;2022-08-02T13:48:42;23.00;99.90
35960;DHT22;22043;50.970;7.192;2022-08-02T13:51:07;23.20;99.90
35960;DHT22;22043;50.970;7.192;2022-08-02T13:53:40;23.30;99.90
35960;DHT22;22043;50.970;7.192;2022-08-02T13:56:06;23.50;99.90
35960;DHT22;22043;50.970;7.192;2022-08-02T13:58:32;23.50;99.90
35960;DHT22;22043;50.970;7.192;2022-08-02T14:00:58;23.40;99.90
35960;DHT22;22043;50.970;7.192;2022-08-02T14:03:24;23.40;99.90
35960;DHT22;22043;50.970;7.192;2022-08-02T14:05:49;23.40;99.90
35960;DHT22;22043;50.970;7.192;2022-08-02T14:08:19;23.50;99.90
35960;DHT22;22043;50.970;7.192;2022-08-02T14:10:46;23.40;99.90
35960;DHT22;22043;50.970;7.192;2022-08-02T14:13:12;23.30;99.90
35960;DHT22;22043;50.970;7.192;2022-08-02T14:15:38;23.20;99.90
35960;DHT22;22043;50.970;7.192;2022-08-02T14:18:03;23.00;99.90
35960;DHT22;22043;50.970;7.192;2022-08-02T14:20:29;22.90;99.90
35960;DHT22;22043;50.970;7.192;2022-08-02T14:22:55;22.80;99.90
35960;DHT22;22043;50.970;7.192;2022-08-02T14:25:20;22.70;99.90
35960;DHT22;22043;50.970;7.192;2022-08-02T14:27:46;22.70;99.90
35960;DHT22;22043;50.970;7.192;2022-08-02T14:30:12;22.70;99.90
35960;DHT22;22043;50.970;7.192;2022-08-02T14:32:38;22.70;99.90
35960;DHT22;22043;50.970;7.192;2022-08-02T14:35:04;22.70;99.90
35960;DHT22;22043;50.970;7.192;2022-08-02T14:37:30;22.70;99.90
35960;DHT22;22043;50.970;7.192;2022-08-02T14:39:55;22.60;99.90
35960;DHT22;22043;50.970;7.192;2022-08-02T14:42:21;22.50;99.90
35960;DHT22;22043;50.970;7.192;2022-08-02T14:44:47;22.40;99.90
35960;DHT22;22043;50.970;7.192;2022-08-02T14:47:12;22.40;99.90
35960;DHT22;22043;50.970;7.192;2022-08-02T14:49:38;22.60;99.90
35960;DHT22;22043;50.970;7.192;2022-08-02T14:52:04;22.80;99.90
35960;DHT22;22043;50.970;7.192;2022-08-02T14:54:29;22.70;99.90
35960;DHT22;22043;50.970;7.192;2022-08-02T14:56:57;22.70;99.90
35960;DHT22;22043;50.970;7.192;2022-08-02T14:59:24;22.80;99.90
35960;DHT22;22043;50.970;7.192;2022-08-02T15:01:49;22.90;99.90
35960;DHT22;22043;50.970;7.192;2022-08-02T15:04:15;23.10;99.90
35960;DHT22;22043;50.970;7.192;2022-08-02T15:06:41;23.30;99.90
35960;DHT22;22043;50.970;7.192;2022-08-02T15:09:06;23.30;99.90
35960;DHT22;22043;50.970;7.192;2022-08-02T15:11:32;23.20;99.90
35960;DHT22;22043;50.970;7.192;2022-08-02T15:13:58;23.20;99.90
35960;DHT22;22043;50.970;7.192;2022-08-02T15:16:25;23.10;99.90
35960;DHT22;22043;50.970;7.192;2022-08-02T15:18:51;23.30;99.90
35960;DHT22;22043;50.970;7.192;2022-08-02T15:21:17;23.30;99.90
35960;DHT22;22043;50.970;7.192;2022-08-02T15:23:42;23.20;99.90
35960;DHT22;22043;50.970;7.192;2022-08-02T15:26:08;23.20;99.90
35960;DHT22;22043;50.970;7.192;2022-08-02T15:28:34;23.20;99.90
35960;DHT22;22043;50.970;7.192;2022-08-02T15:31:00;23.00;99.90
35960;DHT22;22043;50.970;7.192;2022-08-02T15:33:25;22.80;99.90
35960;DHT22;22043;50.970;7.192;2022-08-02T15:35:51;22.70;99.90
35960;DHT22;22043;50.970;7.192;2022-08-02T15:38:17;22.50;99.90
35960;DHT22;22043;50.970;7.192;2022-08-02T15:40:42;22.40;99.90
35960;DHT22;22043;50.970;7.192;2022-08-02T15:43:09;22.40;99.90
35960;DHT22;22043;50.970;7.192;2022-08-02T15:45:35;22.30;99.90
35960;DHT22;22043;50.970;7.192;2022-08-02T15:48:02;22.40;99.90
35960;DHT22;22043;50.970;7.192;2022-08-02T15:50:28;22.30;99.90
35960;DHT22;22043;50.970;7.192;2022-08-02T15:52:54;22.30;99.90
35960;DHT22;22043;50.970;7.192;2022-08-02T15:55:19;22.30;99.90
35960;DHT22;22043;50.970;7.192;2022-08-02T15:57:45;22.30;99.90
35960;DHT22;22043;50.970;7.192;2022-08-02T16:00:11;22.20;99.90
35960;DHT22;22043;50.970;7.192;2022-08-02T16:02:37;22.10;99.90
35960;DHT22;22043;50.970;7.192;2022-08-02T16:05:03;22.20;99.90